createdAt,value
2019-01-27T00:01:37.527Z,1.10
2019-01-27T00:03:44.486Z,1.10
2019-01-27T00:05:53.576Z,1.10
2019-01-27T00:08:01.966Z,1.10
2019-01-27T00:10:10.732Z,1.10
2019-01-27T00:12:20.743Z,1.10
2019-01-27T00:14:26.782Z,1.10
2019-01-27T00:16:35.639Z,1.10
2019-01-27T00:18:44.462Z,1.10
2019-01-27T00:20:53.106Z,1.10
2019-01-27T00:23:02.478Z,1.10
2019-01-27T00:25:12.555Z,1.10
2019-01-27T00:27:21.562Z,1.10
2019-01-27T00:29:30.344Z,1.10
2019-01-27T00:31:40.342Z,1.10
2019-01-27T00:33:53.478Z,1.10
2019-01-27T00:36:05.873Z,1.10
2019-01-27T00:38:13.382Z,1.10
2019-01-27T00:40:22.289Z,1.10
2019-01-27T00:42:35.884Z,1.10
2019-01-27T00:44:44.354Z,1.10
2019-01-27T00:46:54.603Z,1.10
2019-01-27T00:49:04.618Z,1.10
2019-01-27T00:51:15.802Z,1.70
2019-01-27T00:53:23.686Z,1.10
2019-01-27T00:55:34.487Z,1.10
2019-01-27T00:57:41.402Z,1.10
2019-01-27T00:59:50.334Z,1.10
2019-01-27T01:01:58.234Z,1.10
2019-01-27T01:04:06.473Z,1.00
2019-01-27T01:06:16.267Z,1.00
2019-01-27T01:08:24.278Z,1.00
2019-01-27T01:10:33.287Z,1.00
2019-01-27T01:12:41.478Z,0.90
2019-01-27T01:14:50.490Z,1.00
2019-01-27T01:17:02.376Z,0.90
2019-01-27T01:19:12.171Z,0.90
2019-01-27T01:21:19.631Z,0.90
2019-01-27T01:23:29.735Z,0.90
2019-01-27T01:25:40.231Z,0.90
2019-01-27T01:27:47.223Z,0.90
2019-01-27T01:29:58.039Z,0.80
2019-01-27T01:32:06.363Z,0.80
2019-01-27T01:34:16.375Z,0.80
2019-01-27T01:36:27.503Z,0.80
2019-01-27T01:38:38.687Z,0.80
2019-01-27T01:40:48.013Z,0.80
2019-01-27T01:42:56.970Z,0.80
2019-01-27T01:45:06.998Z,0.80
2019-01-27T01:47:17.315Z,0.80
2019-01-27T01:49:26.534Z,0.70
2019-01-27T01:51:35.612Z,0.80
2019-01-27T01:53:46.346Z,0.80
2019-01-27T01:55:49.975Z,0.80
2019-01-27T01:57:58.734Z,0.80
2019-01-27T02:00:08.982Z,0.80
2019-01-27T02:02:18.698Z,0.70
2019-01-27T02:04:28.554Z,0.70
2019-01-27T02:06:36.713Z,0.70
2019-01-27T02:08:58.287Z,0.70
2019-01-27T02:11:05.941Z,0.80
2019-01-27T02:15:17.747Z,0.70
2019-01-27T02:17:25.726Z,0.70
2019-01-27T02:19:32.062Z,0.70
2019-01-27T02:21:39.094Z,0.70
2019-01-27T02:23:45.927Z,0.70
2019-01-27T02:25:55.162Z,0.70
2019-01-27T02:28:05.766Z,0.70
2019-01-27T02:32:15.501Z,0.70
2019-01-27T02:34:23.870Z,0.70
2019-01-27T02:36:33.737Z,0.70
2019-01-27T02:38:47.246Z,0.70
2019-01-27T02:40:58.583Z,-0.40
2019-01-27T02:45:20.666Z,0.70
2019-01-27T02:47:31.078Z,0.80
2019-01-27T02:49:43.005Z,0.80
2019-01-27T02:52:02.770Z,0.90
2019-01-27T02:54:11.803Z,0.80
2019-01-27T02:56:25.286Z,0.70
2019-01-27T02:58:30.691Z,0.80
2019-01-27T03:00:36.454Z,0.70
2019-01-27T03:04:49.387Z,0.90
2019-01-27T03:07:20.877Z,0.80
2019-01-27T03:09:39.130Z,0.80
2019-01-27T03:13:53.703Z,0.80
2019-01-27T03:16:02.619Z,0.70
2019-01-27T03:18:12.322Z,0.80
2019-01-27T03:20:24.206Z,0.80
2019-01-27T03:22:37.031Z,0.80
2019-01-27T03:26:51.540Z,0.90
2019-01-27T03:28:58.132Z,0.90
2019-01-27T03:31:06.627Z,0.90
2019-01-27T03:33:15.147Z,0.90
2019-01-27T03:35:26.992Z,0.90
2019-01-27T03:37:35.752Z,0.90
2019-01-27T03:39:45.159Z,0.90
2019-01-27T03:41:52.926Z,0.90
2019-01-27T03:44:03.771Z,0.90
2019-01-27T03:46:11.250Z,0.90
2019-01-27T03:48:19.974Z,0.90
2019-01-27T03:50:27.734Z,0.90
2019-01-27T03:52:38.532Z,1.00
2019-01-27T03:54:48.679Z,0.90
2019-01-27T03:56:57.702Z,0.90
2019-01-27T03:59:05.983Z,0.90
2019-01-27T04:01:14.387Z,1.00
2019-01-27T04:03:23.660Z,1.00
2019-01-27T04:05:33.747Z,1.00
2019-01-27T04:07:39.409Z,1.00
2019-01-27T04:09:47.012Z,1.00
2019-01-27T04:11:53.142Z,1.00
2019-01-27T04:14:04.358Z,1.00
2019-01-27T04:16:17.255Z,1.00
2019-01-27T04:18:28.448Z,1.00
2019-01-27T04:20:37.471Z,1.10
2019-01-27T04:22:47.238Z,1.10
2019-01-27T04:24:55.267Z,1.10
2019-01-27T04:27:07.590Z,1.10
2019-01-27T04:29:18.744Z,1.10
2019-01-27T04:31:26.987Z,1.10
2019-01-27T04:33:33.810Z,1.10
2019-01-27T04:37:46.981Z,1.10
2019-01-27T04:39:54.346Z,1.10
2019-01-27T04:42:03.654Z,1.10
2019-01-27T04:44:12.114Z,1.10
2019-01-27T04:46:20.043Z,1.10
2019-01-27T04:48:28.727Z,1.10
2019-01-27T04:50:36.686Z,1.20
2019-01-27T04:54:54.098Z,1.20
2019-01-27T04:57:02.869Z,1.20
2019-01-27T04:59:11.061Z,1.20
2019-01-27T05:01:18.119Z,1.20
2019-01-27T05:05:36.774Z,1.20
2019-01-27T05:07:53.223Z,1.30
2019-01-27T05:10:02.023Z,1.30
2019-01-27T05:12:10.024Z,1.30
2019-01-27T05:14:16.575Z,1.30
2019-01-27T05:16:25.356Z,1.30
2019-01-27T05:18:35.229Z,1.30
2019-01-27T05:20:45.000Z,1.40
2019-01-27T05:22:59.106Z,1.30
2019-01-27T05:25:11.852Z,1.40
2019-01-27T05:27:21.894Z,1.40
2019-01-27T05:29:32.140Z,1.40
2019-01-27T05:31:40.026Z,1.40
2019-01-27T05:33:48.840Z,1.40
2019-01-27T05:35:56.216Z,1.40
2019-01-27T05:38:06.870Z,1.40
2019-01-27T05:40:26.207Z,1.40
2019-01-27T05:42:36.267Z,1.40
2019-01-27T05:44:44.263Z,1.50
2019-01-27T05:46:52.087Z,1.50
2019-01-27T05:49:02.518Z,1.40
2019-01-27T05:51:10.409Z,1.50
2019-01-27T05:53:17.802Z,1.50
2019-01-27T05:55:26.320Z,1.40
2019-01-27T05:57:35.209Z,1.40
2019-01-27T05:59:42.502Z,1.50
2019-01-27T06:01:51.871Z,1.40
2019-01-27T06:04:01.163Z,1.50
2019-01-27T06:06:10.950Z,1.50
2019-01-27T06:08:23.399Z,1.50
2019-01-27T06:10:31.878Z,1.50
2019-01-27T06:12:40.726Z,1.50
2019-01-27T06:14:52.962Z,1.50
2019-01-27T06:17:03.213Z,1.60
2019-01-27T06:19:13.878Z,1.50
2019-01-27T06:21:22.799Z,1.60
2019-01-27T06:23:32.614Z,1.60
2019-01-27T06:25:41.558Z,1.60
2019-01-27T06:27:50.939Z,1.60
2019-01-27T06:29:59.891Z,1.60
2019-01-27T06:32:09.146Z,1.50
2019-01-27T06:34:21.430Z,1.50
2019-01-27T06:36:32.687Z,1.50
2019-01-27T06:38:41.446Z,1.50
2019-01-27T06:40:47.654Z,1.50
2019-01-27T06:42:55.039Z,1.50
2019-01-27T06:45:04.966Z,1.50
2019-01-27T06:47:15.976Z,1.50
2019-01-27T06:49:26.963Z,1.50
2019-01-27T06:51:36.051Z,1.50
2019-01-27T06:53:46.099Z,1.50
2019-01-27T06:55:56.170Z,1.50
2019-01-27T06:58:04.006Z,1.40
2019-01-27T07:00:30.747Z,1.40
2019-01-27T07:02:45.523Z,1.40
2019-01-27T07:05:10.280Z,1.50
2019-01-27T07:07:35.226Z,1.50
2019-01-27T07:09:57.902Z,1.50
2019-01-27T07:12:29.691Z,1.50
2019-01-27T07:14:53.414Z,1.50
2019-01-27T07:17:36.328Z,1.50
2019-01-27T07:19:57.846Z,1.50
2019-01-27T07:22:28.471Z,1.50
2019-01-27T07:24:56.679Z,1.50
2019-01-27T07:27:24.790Z,1.50
2019-01-27T07:29:44.154Z,1.60
2019-01-27T07:32:24.163Z,1.60
2019-01-27T07:35:05.130Z,1.60
2019-01-27T07:37:32.582Z,1.60
2019-01-27T07:39:55.142Z,1.60
2019-01-27T07:42:14.907Z,1.60
2019-01-27T07:44:29.650Z,1.60
2019-01-27T07:46:53.994Z,1.60
2019-01-27T07:49:28.683Z,1.60
2019-01-27T07:51:56.686Z,1.60
2019-01-27T07:54:26.729Z,1.60
2019-01-27T07:57:10.794Z,1.70
2019-01-27T07:59:29.786Z,1.70
2019-01-27T08:01:51.755Z,1.70
2019-01-27T08:04:20.490Z,1.70
2019-01-27T08:06:40.110Z,1.70
2019-01-27T08:09:03.014Z,1.70
2019-01-27T08:11:25.394Z,1.70
2019-01-27T08:13:52.530Z,1.70
2019-01-27T08:16:19.387Z,1.70
2019-01-27T08:18:39.036Z,1.70
2019-01-27T08:21:07.590Z,1.70
2019-01-27T08:23:39.243Z,1.70
2019-01-27T08:26:05.238Z,1.70
2019-01-27T08:28:33.841Z,1.80
2019-01-27T08:31:00.245Z,1.80
2019-01-27T08:33:30.612Z,1.80
2019-01-27T08:36:15.562Z,1.80
2019-01-27T08:38:45.103Z,1.90
2019-01-27T08:41:10.722Z,1.80
2019-01-27T08:43:40.592Z,1.80
2019-01-27T08:46:00.722Z,1.80
2019-01-27T08:48:09.687Z,1.80
2019-01-27T08:50:19.834Z,1.80
2019-01-27T08:52:26.281Z,1.80
2019-01-27T08:54:35.302Z,1.80
2019-01-27T08:56:45.486Z,1.80
2019-01-27T08:58:54.486Z,1.80
2019-01-27T09:01:30.147Z,1.80
2019-01-27T09:03:57.524Z,1.90
2019-01-27T09:06:26.262Z,1.80
2019-01-27T09:08:44.386Z,1.80
2019-01-27T09:11:02.735Z,1.90
2019-01-27T09:13:30.090Z,1.90
2019-01-27T09:15:59.472Z,1.90
2019-01-27T09:18:26.119Z,1.90
2019-01-27T09:20:59.348Z,1.90
2019-01-27T09:23:28.292Z,1.90
2019-01-27T09:26:04.345Z,1.90
2019-01-27T09:28:52.085Z,1.80
2019-01-27T09:31:18.311Z,1.90
2019-01-27T09:33:57.910Z,1.90
2019-01-27T09:36:37.295Z,1.90
2019-01-27T09:38:55.602Z,2.00
2019-01-27T09:41:37.799Z,1.90
2019-01-27T09:44:02.409Z,1.40
2019-01-27T09:46:29.000Z,1.90
2019-01-27T09:49:03.627Z,2.00
2019-01-27T09:51:29.291Z,2.00
2019-01-27T09:53:50.923Z,2.00
2019-01-27T09:56:18.614Z,2.00
2019-01-27T09:58:43.270Z,2.00
2019-01-27T10:01:22.034Z,2.00
2019-01-27T10:03:41.162Z,2.00
2019-01-27T10:06:10.835Z,2.00
2019-01-27T10:08:48.791Z,2.00
2019-01-27T10:11:26.545Z,2.00
2019-01-27T10:13:39.966Z,2.00
2019-01-27T10:16:14.675Z,2.00
2019-01-27T10:18:53.782Z,2.10
2019-01-27T10:21:19.538Z,2.10
2019-01-27T10:23:50.485Z,2.10
2019-01-27T10:26:16.102Z,2.20
2019-01-27T10:28:42.046Z,2.10
2019-01-27T10:31:10.850Z,2.20
2019-01-27T10:33:40.504Z,2.20
2019-01-27T10:36:21.773Z,2.30
2019-01-27T10:38:51.794Z,2.30
2019-01-27T10:41:13.000Z,2.30
2019-01-27T10:43:39.750Z,2.30
2019-01-27T10:45:56.930Z,2.30
2019-01-27T10:48:34.957Z,2.30
2019-01-27T10:51:05.618Z,2.40
2019-01-27T10:53:23.014Z,2.40
2019-01-27T10:55:50.031Z,2.40
2019-01-27T10:58:29.224Z,2.40
2019-01-27T11:01:00.141Z,2.40
2019-01-27T11:03:18.951Z,2.40
2019-01-27T11:05:46.379Z,2.50
2019-01-27T11:08:10.462Z,2.50
2019-01-27T11:10:40.587Z,2.50
2019-01-27T11:13:07.456Z,2.50
2019-01-27T11:15:26.790Z,2.50
2019-01-27T11:18:00.706Z,2.50
2019-01-27T11:20:39.947Z,2.50
2019-01-27T11:23:05.699Z,2.50
2019-01-27T11:25:33.179Z,2.50
2019-01-27T11:28:10.454Z,2.50
2019-01-27T11:30:38.282Z,2.60
2019-01-27T11:33:18.507Z,2.60
2019-01-27T11:35:44.727Z,2.60
2019-01-27T11:38:19.565Z,2.60
2019-01-27T11:40:47.738Z,2.70
2019-01-27T11:43:22.038Z,2.70
2019-01-27T11:45:43.495Z,2.70
2019-01-27T11:48:14.465Z,2.70
2019-01-27T11:50:36.230Z,2.70
2019-01-27T11:52:52.399Z,2.80
2019-01-27T11:55:02.528Z,2.80
2019-01-27T11:57:12.630Z,2.80
2019-01-27T11:59:19.914Z,2.80
2019-01-27T12:01:28.822Z,2.80
2019-01-27T12:03:38.442Z,2.90
2019-01-27T12:05:48.275Z,2.90
2019-01-27T12:08:03.014Z,2.90
2019-01-27T12:10:17.209Z,2.90
2019-01-27T12:12:26.215Z,2.90
2019-01-27T12:14:34.146Z,2.90
2019-01-27T12:16:42.727Z,2.90
2019-01-27T12:18:52.071Z,2.90
2019-01-27T12:21:01.970Z,2.90
2019-01-27T12:23:07.119Z,2.90
2019-01-27T12:25:18.426Z,2.90
2019-01-27T12:27:28.038Z,2.90
2019-01-27T12:29:35.886Z,2.90
2019-01-27T12:31:47.114Z,2.90
2019-01-27T12:33:56.541Z,3.00
2019-01-27T12:36:04.584Z,3.00
2019-01-27T12:38:14.761Z,3.00
2019-01-27T12:40:25.205Z,2.90
2019-01-27T12:42:33.606Z,3.00
2019-01-27T12:44:45.943Z,3.00
2019-01-27T12:46:51.636Z,3.00
2019-01-27T12:48:57.870Z,3.00
2019-01-27T12:51:03.234Z,3.00
2019-01-27T12:53:12.075Z,3.00
2019-01-27T12:55:20.790Z,3.00
2019-01-27T12:57:30.967Z,3.00
2019-01-27T12:59:40.030Z,3.00
2019-01-27T13:01:47.750Z,3.00
2019-01-27T13:03:55.847Z,3.00
2019-01-27T13:06:05.754Z,3.00
2019-01-27T13:08:15.593Z,3.00
2019-01-27T13:10:23.546Z,3.00
2019-01-27T13:12:30.712Z,3.00
2019-01-27T13:14:40.555Z,3.00
2019-01-27T13:16:47.368Z,3.00
2019-01-27T13:18:55.790Z,3.00
2019-01-27T13:21:04.586Z,3.00
2019-01-27T13:23:13.681Z,3.00
2019-01-27T13:25:23.078Z,3.00
2019-01-27T13:27:30.579Z,3.00
2019-01-27T13:29:36.170Z,3.00
2019-01-27T13:31:43.346Z,3.00
2019-01-27T13:33:50.746Z,3.00
2019-01-27T13:35:59.623Z,3.00
2019-01-27T13:38:07.894Z,3.00
2019-01-27T13:40:25.568Z,3.00
2019-01-27T13:42:38.422Z,3.00
2019-01-27T13:44:46.839Z,3.00
2019-01-27T13:46:56.587Z,3.00
2019-01-27T13:49:04.286Z,3.00
2019-01-27T13:51:14.187Z,3.00
2019-01-27T13:53:22.391Z,3.00
2019-01-27T13:55:33.030Z,3.00
2019-01-27T13:57:41.971Z,3.00
2019-01-27T13:59:51.557Z,3.00
2019-01-27T14:02:01.574Z,3.00
2019-01-27T14:04:09.128Z,3.00
2019-01-27T14:06:21.043Z,3.10
2019-01-27T14:08:28.399Z,3.10
2019-01-27T14:10:38.446Z,3.10
2019-01-27T14:12:48.334Z,3.10
2019-01-27T14:14:59.127Z,3.10
2019-01-27T14:17:08.076Z,3.10
2019-01-27T14:19:17.117Z,3.10
2019-01-27T14:21:25.847Z,3.10
2019-01-27T14:23:34.342Z,3.10
2019-01-27T14:25:43.335Z,3.10
2019-01-27T14:27:52.664Z,3.10
2019-01-27T14:30:04.860Z,3.10
2019-01-27T14:32:14.406Z,3.10
2019-01-27T14:34:23.391Z,3.10
2019-01-27T14:36:31.686Z,3.10
2019-01-27T14:38:42.344Z,3.10
2019-01-27T14:40:52.199Z,3.10
2019-01-27T14:43:02.652Z,3.10
2019-01-27T14:45:17.907Z,3.10
2019-01-27T14:47:25.270Z,3.00
2019-01-27T14:49:32.806Z,3.00
2019-01-27T14:51:41.707Z,3.00
2019-01-27T14:53:49.591Z,3.00
2019-01-27T14:55:54.910Z,3.00
2019-01-27T14:58:01.079Z,3.00
2019-01-27T15:00:13.014Z,2.90
2019-01-27T15:02:22.311Z,2.90
2019-01-27T15:04:33.986Z,2.90
2019-01-27T15:06:44.295Z,3.00
2019-01-27T15:08:57.096Z,3.00
2019-01-27T15:11:03.737Z,3.00
2019-01-27T15:13:10.519Z,3.00
2019-01-27T15:15:22.570Z,3.00
2019-01-27T15:17:32.391Z,3.00
2019-01-27T15:19:43.114Z,3.00
2019-01-27T15:21:51.496Z,3.00
2019-01-27T15:24:00.190Z,3.00
2019-01-27T15:26:09.531Z,3.00
2019-01-27T15:28:19.434Z,2.90
2019-01-27T15:30:32.522Z,2.90
2019-01-27T15:32:39.643Z,2.90
2019-01-27T15:34:52.131Z,2.90
2019-01-27T15:37:03.423Z,2.90
2019-01-27T15:39:13.928Z,2.90
2019-01-27T15:41:20.812Z,2.90
2019-01-27T15:43:29.467Z,3.00
2019-01-27T15:45:38.390Z,3.00
2019-01-27T15:47:45.979Z,2.90
2019-01-27T15:49:52.827Z,3.00
2019-01-27T15:52:01.770Z,3.00
2019-01-27T15:54:11.724Z,3.00
2019-01-27T15:56:21.862Z,3.00
2019-01-27T15:58:32.648Z,3.00
2019-01-27T16:00:41.080Z,3.00
2019-01-27T16:02:49.993Z,3.00
2019-01-27T16:04:57.390Z,3.00
2019-01-27T16:07:04.148Z,3.00
2019-01-27T16:09:11.922Z,3.00
2019-01-27T16:11:20.844Z,3.00
2019-01-27T16:13:30.067Z,3.00
2019-01-27T16:15:37.730Z,3.00
2019-01-27T16:17:47.494Z,3.00
2019-01-27T16:19:55.678Z,3.00
2019-01-27T16:22:08.695Z,3.00
2019-01-27T16:24:37.517Z,3.00
2019-01-27T16:26:43.287Z,3.00
2019-01-27T16:28:49.939Z,3.00
2019-01-27T16:31:22.331Z,3.00
2019-01-27T16:33:39.498Z,3.00
2019-01-27T16:35:47.376Z,3.00
2019-01-27T16:37:57.299Z,3.00
2019-01-27T16:40:07.916Z,3.00
2019-01-27T16:42:18.818Z,3.00
2019-01-27T16:44:28.855Z,3.00
2019-01-27T16:46:38.238Z,3.00
2019-01-27T16:48:48.103Z,3.00
2019-01-27T16:50:58.474Z,3.00
2019-01-27T16:53:07.387Z,3.00
2019-01-27T16:55:20.276Z,3.00
2019-01-27T16:57:29.118Z,3.00
2019-01-27T16:59:38.005Z,3.00
2019-01-27T17:01:50.081Z,3.00
2019-01-27T17:04:00.683Z,3.00
2019-01-27T17:06:10.775Z,3.00
2019-01-27T17:08:18.267Z,3.10
2019-01-27T17:10:30.862Z,3.00
2019-01-27T17:12:40.742Z,3.00
2019-01-27T17:14:52.262Z,3.00
2019-01-27T17:17:05.238Z,3.00
2019-01-27T17:19:13.163Z,3.00
2019-01-27T17:21:22.038Z,3.00
2019-01-27T17:23:33.810Z,3.00
2019-01-27T17:25:43.654Z,2.90
2019-01-27T17:27:54.439Z,2.90
2019-01-27T17:30:03.547Z,3.00
2019-01-27T17:32:12.367Z,3.00
2019-01-27T17:34:24.635Z,3.00
2019-01-27T17:36:32.372Z,2.90
2019-01-27T17:38:42.183Z,2.90
2019-01-27T17:40:53.355Z,3.00
2019-01-27T17:43:03.339Z,3.00
2019-01-27T17:45:16.214Z,3.00
2019-01-27T17:47:29.255Z,3.00
2019-01-27T17:49:38.738Z,3.00
2019-01-27T17:51:48.311Z,2.90
2019-01-27T17:53:58.510Z,2.90
2019-01-27T17:56:07.613Z,2.90
2019-01-27T17:58:53.656Z,2.90
2019-01-27T18:01:08.679Z,2.90
2019-01-27T18:03:34.164Z,2.90
2019-01-27T18:06:01.340Z,2.90
2019-01-27T18:08:16.685Z,2.90
2019-01-27T18:10:49.912Z,3.00
2019-01-27T18:13:20.735Z,3.00
2019-01-27T18:15:32.055Z,2.90
2019-01-27T18:17:40.849Z,3.00
2019-01-27T18:19:49.754Z,3.00
2019-01-27T18:21:58.054Z,3.00
2019-01-27T18:24:06.939Z,3.00
2019-01-27T18:26:17.468Z,3.00
2019-01-27T18:28:29.448Z,3.10
2019-01-27T18:30:42.615Z,3.10
2019-01-27T18:32:55.287Z,3.10
2019-01-27T18:35:08.222Z,3.00
2019-01-27T18:37:15.796Z,3.00
2019-01-27T18:39:25.497Z,3.10
2019-01-27T18:41:34.593Z,3.10
2019-01-27T18:43:43.577Z,3.00
2019-01-27T18:45:59.659Z,3.10
2019-01-27T18:48:08.294Z,3.00
2019-01-27T18:50:18.986Z,3.10
2019-01-27T18:52:31.202Z,3.10
2019-01-27T18:55:11.071Z,3.10
2019-01-27T18:57:26.047Z,3.10
2019-01-27T18:59:47.635Z,3.10
2019-01-27T19:02:24.732Z,3.10
2019-01-27T19:04:40.043Z,3.00
2019-01-27T19:07:05.903Z,3.00
2019-01-27T19:09:53.751Z,3.10
2019-01-27T19:12:19.459Z,3.10
2019-01-27T19:14:55.192Z,3.10
2019-01-27T19:17:25.794Z,3.00
2019-01-27T19:20:01.174Z,3.00
2019-01-27T19:22:32.990Z,3.10
2019-01-27T19:25:17.915Z,3.00
2019-01-27T19:27:48.635Z,3.10
2019-01-27T19:30:18.210Z,3.00
2019-01-27T19:32:42.447Z,3.00
2019-01-27T19:35:21.420Z,3.10
2019-01-27T19:37:50.575Z,3.10
2019-01-27T19:40:10.867Z,3.10
2019-01-27T19:42:38.792Z,3.10
2019-01-27T19:45:07.949Z,3.10
2019-01-27T19:47:33.191Z,3.00
2019-01-27T19:50:18.531Z,3.00
2019-01-27T19:52:44.339Z,3.10
2019-01-27T19:55:16.032Z,3.00
2019-01-27T19:57:34.022Z,3.00
2019-01-27T20:00:00.311Z,3.00
2019-01-27T20:02:24.896Z,3.10
2019-01-27T20:04:47.994Z,3.00
2019-01-27T20:07:05.127Z,3.00
2019-01-27T20:09:32.375Z,3.00
2019-01-27T20:11:57.140Z,3.00
2019-01-27T20:14:15.433Z,3.00
2019-01-27T20:16:42.081Z,3.00
2019-01-27T20:19:14.094Z,3.00
2019-01-27T20:21:38.190Z,3.10
2019-01-27T20:24:06.180Z,3.10
2019-01-27T20:26:20.723Z,3.10
2019-01-27T20:29:05.966Z,3.00
2019-01-27T20:31:31.773Z,3.00
2019-01-27T20:34:16.207Z,3.10
2019-01-27T20:36:34.570Z,3.10
2019-01-27T20:38:54.180Z,3.00
2019-01-27T20:41:15.242Z,3.10
2019-01-27T20:43:43.123Z,3.10
2019-01-27T20:45:59.459Z,3.10
2019-01-27T20:48:24.119Z,3.10
2019-01-27T20:50:47.439Z,3.10
2019-01-27T20:53:15.983Z,3.10
2019-01-27T20:55:39.251Z,3.10
2019-01-27T20:58:17.888Z,3.10
2019-01-27T21:00:43.380Z,3.10
2019-01-27T21:03:08.983Z,3.10
2019-01-27T21:05:29.490Z,3.10
2019-01-27T21:08:09.582Z,3.20
2019-01-27T21:10:48.240Z,3.10
2019-01-27T21:13:20.531Z,3.20
2019-01-27T21:15:45.738Z,3.10
2019-01-27T21:18:09.252Z,3.20
2019-01-27T21:20:21.064Z,3.20
2019-01-27T21:22:29.928Z,3.20
2019-01-27T21:24:40.704Z,3.10
2019-01-27T21:26:57.003Z,3.20
2019-01-27T21:29:06.849Z,3.20
2019-01-27T21:31:16.723Z,3.20
2019-01-27T21:33:24.630Z,3.20
2019-01-27T21:35:34.418Z,3.20
2019-01-27T21:37:44.448Z,3.20
2019-01-27T21:39:55.046Z,3.10
2019-01-27T21:42:06.861Z,3.10
2019-01-27T21:44:15.142Z,3.20
2019-01-27T21:46:23.455Z,3.20
2019-01-27T21:48:32.617Z,3.20
2019-01-27T21:50:45.312Z,3.20
2019-01-27T21:52:55.193Z,3.20
2019-01-27T21:55:03.479Z,3.10
2019-01-27T21:57:12.759Z,3.20
2019-01-27T21:59:23.467Z,3.10
2019-01-27T22:01:31.557Z,3.10
2019-01-27T22:03:42.428Z,3.10
2019-01-27T22:05:53.355Z,3.20
2019-01-27T22:08:02.249Z,3.10
2019-01-27T22:10:13.498Z,3.10
2019-01-27T22:12:21.943Z,3.10
2019-01-27T22:14:30.742Z,3.10
2019-01-27T22:16:42.047Z,3.10
2019-01-27T22:18:54.627Z,3.10
2019-01-27T22:21:04.731Z,3.10
2019-01-27T22:23:12.658Z,3.10
2019-01-27T22:25:23.457Z,3.10
2019-01-27T22:27:33.578Z,3.10
2019-01-27T22:29:40.351Z,3.10
2019-01-27T22:31:47.627Z,3.10
2019-01-27T22:33:59.463Z,3.10
2019-01-27T22:36:08.090Z,3.10
2019-01-27T22:38:17.959Z,3.10
2019-01-27T22:40:31.639Z,3.10
2019-01-27T22:42:40.551Z,3.20
2019-01-27T22:44:47.469Z,3.20
2019-01-27T22:46:54.118Z,3.20
2019-01-27T22:49:00.828Z,3.20
2019-01-27T22:51:08.790Z,3.20
2019-01-27T22:53:17.879Z,3.30
2019-01-27T22:55:25.941Z,3.20
2019-01-27T22:57:35.206Z,3.30
2019-01-27T22:59:43.563Z,3.30
2019-01-27T23:01:52.070Z,3.30
2019-01-27T23:04:01.786Z,3.30
2019-01-27T23:06:12.674Z,3.20
2019-01-27T23:08:22.638Z,3.30
2019-01-27T23:10:29.787Z,3.30
2019-01-27T23:12:41.479Z,3.30
2019-01-27T23:14:52.523Z,3.30
2019-01-27T23:17:01.158Z,3.30
2019-01-27T23:19:16.146Z,3.30
2019-01-27T23:21:27.062Z,3.30
2019-01-27T23:23:38.026Z,3.30
2019-01-27T23:25:45.882Z,3.30
2019-01-27T23:27:53.336Z,3.20
2019-01-27T23:30:02.603Z,3.20
2019-01-27T23:32:11.942Z,3.30
2019-01-27T23:34:20.775Z,3.30
2019-01-27T23:36:29.102Z,3.20
2019-01-27T23:38:38.862Z,3.30
2019-01-27T23:40:49.194Z,3.30
2019-01-27T23:42:58.952Z,3.30
2019-01-27T23:45:09.198Z,3.30
2019-01-27T23:47:22.058Z,3.30
2019-01-27T23:49:30.342Z,3.30
2019-01-27T23:51:38.870Z,3.30
2019-01-27T23:53:46.476Z,3.30
2019-01-27T23:55:54.550Z,3.30
2019-01-27T23:58:06.215Z,3.40
